Terminal Aerodrome Forecast
Issued by NWS

Home | Current Version | Previous Version | Text Only | Print | Product List | Glossary On
Versions: 1 2 3 4 5 6 7 8 9 10 11 12 13 14 15 16
000
FTAK31 PAJN 300500 RRA
TAFAGY
TAF
PAGY 300541Z 3006/3106 21015G25KT P6SM VCSH SCT045 BKN060 OVC080
     FM300900 20011G18KT P6SM VCSH SCT025 BKN045 OVC060
     FM301400 VRB03KT P6SM FEW010 BKN025 BKN120
     FM301800 03005KT P6SM SCT030 BKN100
     FM302200 03007KT P6SM FEW050 SCT120
     FM310400 03011KT P6SM BKN200
      AMD LTD TO CLD VIS AND WIND=

USA.gov is the U.S. government's official web portal to all federal, state and local government web resources and services.